Bethel Island, California
Current Conditions -  °F | °C
As of 11:53 PM on Friday 24 Oct 2014 (Local Time) from KCCR Reporting Station
Clear Clear  
Wind Chill: 62°   Ceiling: Unl
Heat Index: 62°   Visibility: 10mi
Dew Point: 54°   Wind: 5mph
Humidity: 75%   Direction: 190°S
Pressure: 29.92"   Gusts: NA
Location:  38.03°N, 121.65°W
Report Text: KCCR 250653Z 19004KT 10SM CLR 17/12 A2992 RMK AO2 SLP118 T01670122
Loading
Personal Weather Stations






























Interactive Weather Map
Tropical Storm Tracking
New forecast layout! Learn more

10-Day Weather Forecast

Advertisements
Track Severe Weather on mobile